createdAt,value
2019-04-14T00:00:45.430Z,3.50
2019-04-14T00:03:23.499Z,3.97
2019-04-14T00:05:54.344Z,4.43
2019-04-14T00:08:21.979Z,4.20
2019-04-14T00:10:50.810Z,3.43
2019-04-14T00:13:19.498Z,3.97
2019-04-14T00:15:50.325Z,4.17
2019-04-14T00:18:16.468Z,3.20
2019-04-14T00:20:44.764Z,3.60
2019-04-14T00:23:13.054Z,5.00
2019-04-14T00:25:47.662Z,4.33
2019-04-14T00:28:16.190Z,3.83
2019-04-14T00:30:44.784Z,3.90
2019-04-14T00:33:14.883Z,4.87
2019-04-14T00:35:55.968Z,3.97
2019-04-14T00:38:35.554Z,3.80
2019-04-14T00:41:41.347Z,4.90
2019-04-14T00:44:09.979Z,4.13
2019-04-14T00:47:03.232Z,5.27
2019-04-14T00:49:31.169Z,4.60
2019-04-14T00:51:59.316Z,4.33
2019-04-14T00:54:27.948Z,4.60
2019-04-14T00:56:56.287Z,4.30
2019-04-14T00:59:24.740Z,3.77
2019-04-14T01:01:54.789Z,3.83
2019-04-14T01:04:22.964Z,4.63
2019-04-14T01:06:51.161Z,4.90
2019-04-14T01:09:19.387Z,3.70
2019-04-14T01:11:46.912Z,4.50
2019-04-14T01:14:14.764Z,3.57
2019-04-14T01:16:43.004Z,4.13
2019-04-14T01:19:11.278Z,4.33
2019-04-14T01:21:39.224Z,3.77
2019-04-14T01:24:07.511Z,3.80
2019-04-14T01:26:35.639Z,4.70
2019-04-14T01:29:03.645Z,4.87
2019-04-14T01:31:31.672Z,4.67
2019-04-14T01:33:59.771Z,4.87
2019-04-14T01:36:27.746Z,4.43
2019-04-14T01:38:55.754Z,4.87
2019-04-14T01:41:23.913Z,5.07
2019-04-14T01:43:51.734Z,5.50
2019-04-14T01:46:24.496Z,4.53
2019-04-14T01:48:49.409Z,5.17
2019-04-14T01:51:39.583Z,5.43
2019-04-14T01:54:17.198Z,4.70
2019-04-14T01:56:53.633Z,5.73
2019-04-14T01:59:21.961Z,5.30
2019-04-14T02:01:50.061Z,6.37
2019-04-14T02:04:18.134Z,4.77
2019-04-14T02:06:46.255Z,5.37
2019-04-14T02:09:14.085Z,4.97
2019-04-14T02:11:42.362Z,5.67
2019-04-14T02:14:10.420Z,4.47
2019-04-14T02:16:44.480Z,4.60
2019-04-14T02:19:07.237Z,5.77
2019-04-14T02:21:34.701Z,5.60
2019-04-14T02:24:02.529Z,5.17
2019-04-14T02:26:30.943Z,5.57
2019-04-14T02:28:59.227Z,4.97
2019-04-14T02:31:56.902Z,5.43
2019-04-14T02:34:25.916Z,6.43
2019-04-14T02:36:58.714Z,4.77
2019-04-14T02:39:22.477Z,5.07
2019-04-14T02:47:00.309Z,5.33
2019-04-14T02:49:22.610Z,5.80
2019-04-14T02:51:50.072Z,5.40
2019-04-14T02:56:45.288Z,6.10
2019-04-14T02:59:11.736Z,4.80
2019-04-14T03:04:12.762Z,5.80
2019-04-14T03:06:41.498Z,4.70
2019-04-14T03:11:43.997Z,4.70
2019-04-14T03:14:15.701Z,6.40
2019-04-14T03:17:09.058Z,5.77
2019-04-14T03:19:44.174Z,5.70
2019-04-14T03:22:28.934Z,5.83
2019-04-14T03:25:00.476Z,6.37
2019-04-14T03:27:48.177Z,4.83
2019-04-14T03:33:18.553Z,6.13
2019-04-14T03:35:50.909Z,5.97
2019-04-14T03:38:15.884Z,5.57
2019-04-14T03:40:28.030Z,6.00
2019-04-14T03:42:57.178Z,5.53
2019-04-14T03:45:32.885Z,6.07
2019-04-14T03:48:00.556Z,7.03
2019-04-14T03:50:21.200Z,6.70
2019-04-14T03:55:11.322Z,6.80
2019-04-14T03:57:27.047Z,6.57
2019-04-14T03:59:54.170Z,7.23
2019-04-14T04:02:22.648Z,6.17
2019-04-14T04:04:51.301Z,6.80
2019-04-14T04:07:19.256Z,6.10
2019-04-14T04:09:54.425Z,6.13
2019-04-14T04:12:22.551Z,6.30
2019-04-14T04:14:51.055Z,6.40
2019-04-14T04:17:34.230Z,7.03
2019-04-14T04:20:11.412Z,7.33
2019-04-14T04:23:14.188Z,5.93
2019-04-14T04:25:49.124Z,6.30
2019-04-14T04:28:36.419Z,6.73
2019-04-14T04:31:08.833Z,7.13
2019-04-14T04:33:56.593Z,6.63
2019-04-14T04:36:29.172Z,6.23
2019-04-14T04:39:06.423Z,5.47
2019-04-14T04:41:34.011Z,7.63
2019-04-14T04:44:01.446Z,6.77
2019-04-14T04:46:29.032Z,6.30
2019-04-14T04:49:05.765Z,7.20
2019-04-14T04:51:26.796Z,6.67
2019-04-14T04:53:54.869Z,6.40
2019-04-14T04:56:23.237Z,6.40
2019-04-14T04:58:50.764Z,6.90
2019-04-14T05:01:18.819Z,6.17
2019-04-14T05:03:47.111Z,7.17
2019-04-14T05:06:57.040Z,6.53
2019-04-14T05:09:44.811Z,7.43
2019-04-14T05:12:35.090Z,6.80
2019-04-14T05:15:22.619Z,7.67
2019-04-14T05:17:50.226Z,7.00
2019-04-14T05:20:18.108Z,7.67
2019-04-14T05:22:46.170Z,7.50
2019-04-14T05:25:14.603Z,8.67
2019-04-14T05:27:43.048Z,7.07
2019-04-14T05:30:11.163Z,7.43
2019-04-14T05:32:39.101Z,7.17
2019-04-14T05:35:07.443Z,7.80
2019-04-14T05:37:35.661Z,8.80
2019-04-14T05:40:03.785Z,7.87
2019-04-14T05:42:31.937Z,8.27
2019-04-14T05:45:00.032Z,8.23
2019-04-14T05:47:28.328Z,7.73
2019-04-14T05:49:57.650Z,7.83
2019-04-14T05:52:25.250Z,8.37
2019-04-14T05:54:54.137Z,7.77
2019-04-14T05:57:21.991Z,9.10
2019-04-14T05:59:50.529Z,9.07
2019-04-14T06:02:18.175Z,8.47
2019-04-14T06:04:46.094Z,8.70
2019-04-14T06:07:13.569Z,9.77
2019-04-14T06:09:41.023Z,8.77
2019-04-14T06:12:08.389Z,8.77
2019-04-14T06:14:35.999Z,9.60
2019-04-14T06:17:03.641Z,8.80
2019-04-14T06:19:37.002Z,9.47
2019-04-14T06:22:06.289Z,10.13
2019-04-14T06:24:33.754Z,10.93
2019-04-14T06:27:01.315Z,10.47
2019-04-14T06:29:28.767Z,11.00
2019-04-14T06:32:09.351Z,10.50
2019-04-14T06:34:44.241Z,11.00
2019-04-14T06:37:21.900Z,10.73
2019-04-14T06:39:50.717Z,10.30
2019-04-14T06:42:18.075Z,11.80
2019-04-14T06:44:45.545Z,10.30
2019-04-14T06:47:13.206Z,11.00
2019-04-14T06:49:48.957Z,11.13
2019-04-14T06:52:09.913Z,13.17
2019-04-14T06:54:37.439Z,13.03
2019-04-14T06:57:04.907Z,11.90
2019-04-14T06:59:35.220Z,12.07
2019-04-14T07:02:02.691Z,12.93
2019-04-14T07:04:30.192Z,12.10
2019-04-14T07:06:57.689Z,11.47
2019-04-14T07:09:25.138Z,12.23
2019-04-14T07:11:52.724Z,13.47
2019-04-14T07:14:20.146Z,12.43
2019-04-14T07:16:47.692Z,11.93
2019-04-14T07:19:15.174Z,12.43
2019-04-14T07:21:42.667Z,13.83
2019-04-14T07:24:10.550Z,11.87
2019-04-14T07:26:38.032Z,11.60
2019-04-14T07:29:05.470Z,14.07
2019-04-14T07:31:49.716Z,13.70
2019-04-14T07:34:39.384Z,12.60
2019-04-14T07:37:33.576Z,13.23
2019-04-14T07:40:23.560Z,13.87
2019-04-14T07:42:56.252Z,15.37
2019-04-14T07:45:46.242Z,13.93
2019-04-14T07:48:42.472Z,13.80
2019-04-14T07:51:25.836Z,14.57
2019-04-14T07:54:12.806Z,14.10
2019-04-14T07:57:05.524Z,16.00
2019-04-14T07:59:45.448Z,14.70
2019-04-14T08:02:30.910Z,18.23
2019-04-14T08:05:04.636Z,17.70
2019-04-14T08:07:32.082Z,17.47
2019-04-14T08:09:59.526Z,16.77
2019-04-14T08:12:26.984Z,16.27
2019-04-14T08:14:54.436Z,16.20
2019-04-14T08:17:22.006Z,14.97
2019-04-14T08:19:51.306Z,15.03
2019-04-14T08:22:18.778Z,15.83
2019-04-14T08:24:46.132Z,16.67
2019-04-14T08:27:13.546Z,16.10
2019-04-14T08:29:41.055Z,15.70
2019-04-14T08:32:08.504Z,15.20
2019-04-14T08:34:35.920Z,15.47
2019-04-14T08:37:03.723Z,15.47
2019-04-14T08:39:31.160Z,15.13
2019-04-14T08:42:24.083Z,16.07
2019-04-14T08:44:52.666Z,16.20
2019-04-14T08:47:46.463Z,14.97
2019-04-14T08:50:39.002Z,16.50
2019-04-14T08:53:12.284Z,15.23
2019-04-14T08:56:02.063Z,15.80
2019-04-14T08:58:39.756Z,16.47
2019-04-14T09:01:29.710Z,17.67
2019-04-14T09:04:14.597Z,19.13
2019-04-14T09:07:01.603Z,18.07
2019-04-14T09:09:35.949Z,17.47
2019-04-14T09:12:15.912Z,18.30
2019-04-14T09:14:42.108Z,16.30
2019-04-14T09:17:09.726Z,16.57
2019-04-14T09:19:37.199Z,17.60
2019-04-14T09:22:04.684Z,16.77
2019-04-14T09:24:32.187Z,16.57
2019-04-14T09:26:59.791Z,16.90
2019-04-14T09:29:27.269Z,16.10
2019-04-14T09:31:54.613Z,16.93
2019-04-14T09:34:22.065Z,16.13
2019-04-14T09:36:49.788Z,15.83
2019-04-14T09:39:18.199Z,16.50
2019-04-14T09:41:46.815Z,17.37
2019-04-14T09:44:14.393Z,17.30
2019-04-14T09:46:41.868Z,15.70
2019-04-14T09:49:11.118Z,16.80
2019-04-14T09:51:40.163Z,17.37
2019-04-14T09:54:07.554Z,17.30
2019-04-14T09:56:34.969Z,16.77
2019-04-14T09:59:02.661Z,18.03
2019-04-14T10:01:30.123Z,15.83
2019-04-14T10:03:57.539Z,17.13
2019-04-14T10:06:25.057Z,16.13
2019-04-14T10:08:52.509Z,16.50
2019-04-14T10:11:19.985Z,15.43
2019-04-14T10:13:47.405Z,16.40
2019-04-14T10:16:14.826Z,17.37
2019-04-14T10:18:42.332Z,16.93
2019-04-14T10:21:17.307Z,15.73
2019-04-14T10:23:39.587Z,16.70
2019-04-14T10:26:09.039Z,16.77
2019-04-14T10:28:36.511Z,15.33
2019-04-14T10:31:03.978Z,18.13
2019-04-14T10:33:33.785Z,16.50
2019-04-14T10:36:01.256Z,16.97
2019-04-14T10:38:28.706Z,17.40
2019-04-14T10:40:56.172Z,17.33
2019-04-14T10:43:23.608Z,16.27
2019-04-14T10:45:51.099Z,17.03
2019-04-14T10:48:18.634Z,17.63
2019-04-14T10:50:46.151Z,20.57
2019-04-14T10:53:13.699Z,18.93
2019-04-14T10:55:41.272Z,17.43
2019-04-14T10:58:08.785Z,20.07
2019-04-14T11:00:36.239Z,18.80
2019-04-14T11:03:03.698Z,18.17
2019-04-14T11:05:39.696Z,19.70
2019-04-14T11:08:07.127Z,19.17
2019-04-14T11:10:34.609Z,18.40
2019-04-14T11:13:04.983Z,19.93
2019-04-14T11:15:32.422Z,18.87
2019-04-14T11:17:59.906Z,20.07
2019-04-14T11:20:27.406Z,19.73
2019-04-14T11:23:03.235Z,20.40
2019-04-14T11:25:24.100Z,19.13
2019-04-14T11:27:51.574Z,20.60
2019-04-14T11:30:20.653Z,18.97
2019-04-14T11:33:05.636Z,19.57
2019-04-14T11:35:47.433Z,17.97
2019-04-14T11:38:33.216Z,17.80
2019-04-14T11:41:06.803Z,18.43
2019-04-14T11:43:34.682Z,18.40
2019-04-14T11:46:03.892Z,18.07
2019-04-14T11:48:33.804Z,18.43
2019-04-14T11:51:01.096Z,18.73
2019-04-14T11:53:28.590Z,17.53
2019-04-14T11:55:56.170Z,17.23
2019-04-14T11:58:23.632Z,17.40
2019-04-14T12:01:10.916Z,17.67
2019-04-14T12:03:56.431Z,17.97
2019-04-14T12:06:42.517Z,17.87
2019-04-14T12:09:35.498Z,16.57
2019-04-14T12:12:05.507Z,16.43
2019-04-14T12:14:34.014Z,16.87
2019-04-14T12:17:01.490Z,18.07
2019-04-14T12:19:28.978Z,16.90
2019-04-14T12:22:07.717Z,18.80
2019-04-14T12:24:25.773Z,16.63
2019-04-14T12:26:53.254Z,17.40
2019-04-14T12:29:21.439Z,18.23
2019-04-14T12:31:49.284Z,17.83
2019-04-14T12:34:18.291Z,18.30
2019-04-14T12:36:45.952Z,19.93
2019-04-14T12:39:20.585Z,18.43
2019-04-14T12:41:53.076Z,18.43
2019-04-14T12:44:52.092Z,18.07
2019-04-14T12:47:57.546Z,19.97
2019-04-14T12:50:29.109Z,20.20
2019-04-14T12:52:58.022Z,19.57
2019-04-14T12:55:25.628Z,19.93
2019-04-14T12:57:56.207Z,17.80
2019-04-14T13:00:36.238Z,19.07
2019-04-14T13:03:03.614Z,18.40
2019-04-14T13:05:31.126Z,18.93
2019-04-14T13:07:58.572Z,18.63
2019-04-14T13:10:26.038Z,18.60
2019-04-14T13:12:56.699Z,17.20
2019-04-14T13:15:24.206Z,16.00
2019-04-14T13:17:51.712Z,17.53
2019-04-14T13:20:21.196Z,17.80
2019-04-14T13:22:48.709Z,16.83
2019-04-14T13:25:17.425Z,18.40
2019-04-14T13:27:44.841Z,17.23
2019-04-14T13:30:36.602Z,17.27
2019-04-14T13:33:04.540Z,17.17
2019-04-14T13:35:31.975Z,16.80
2019-04-14T13:37:59.416Z,17.23
2019-04-14T13:40:26.964Z,18.07
2019-04-14T13:42:54.368Z,17.57
2019-04-14T13:45:21.857Z,17.70
2019-04-14T13:47:49.356Z,17.87
2019-04-14T13:50:16.863Z,17.53
2019-04-14T13:52:47.023Z,17.07
2019-04-14T13:55:13.808Z,17.17
2019-04-14T13:57:41.274Z,18.07
2019-04-14T14:00:10.118Z,19.03
2019-04-14T14:02:37.464Z,18.83
2019-04-14T14:05:05.125Z,17.97
2019-04-14T14:07:32.563Z,18.00
2019-04-14T14:10:00.094Z,18.53
2019-04-14T14:12:42.134Z,18.33
2019-04-14T14:15:27.623Z,17.63
2019-04-14T14:18:09.067Z,17.00
2019-04-14T14:20:57.899Z,18.00
2019-04-14T14:23:56.678Z,20.60
2019-04-14T14:26:26.574Z,19.20
2019-04-14T14:28:54.074Z,19.10
2019-04-14T14:31:22.107Z,17.03
2019-04-14T14:33:49.999Z,18.50
2019-04-14T14:36:21.209Z,19.70
2019-04-14T14:38:48.979Z,18.13
2019-04-14T14:41:19.341Z,17.20
2019-04-14T14:43:49.419Z,18.73
2019-04-14T14:46:42.578Z,19.53
2019-04-14T14:49:23.382Z,19.07
2019-04-14T14:52:08.789Z,19.20
2019-04-14T14:54:39.007Z,19.00
2019-04-14T14:57:06.504Z,18.47
2019-04-14T14:59:38.836Z,17.27
2019-04-14T15:02:12.329Z,19.00
2019-04-14T15:04:42.751Z,17.10
2019-04-14T15:07:10.284Z,18.57
2019-04-14T15:09:37.746Z,17.10
2019-04-14T15:12:09.639Z,17.67
2019-04-14T15:14:39.483Z,19.07
2019-04-14T15:17:10.259Z,18.10
2019-04-14T15:19:43.792Z,18.37
2019-04-14T15:22:16.917Z,17.00
2019-04-14T15:24:44.378Z,17.93
2019-04-14T15:27:11.854Z,16.87
2019-04-14T15:29:41.247Z,17.13
2019-04-14T15:32:11.576Z,17.77
2019-04-14T15:34:45.998Z,18.07
2019-04-14T15:37:16.584Z,16.87
2019-04-14T15:39:44.046Z,16.67
2019-04-14T15:42:11.888Z,17.10
2019-04-14T15:44:39.254Z,18.37
2019-04-14T15:47:06.720Z,16.47
2019-04-14T15:49:34.246Z,16.80
2019-04-14T15:52:01.894Z,17.43
2019-04-14T15:54:29.511Z,17.07
2019-04-14T15:57:16.883Z,16.67
2019-04-14T16:00:03.865Z,17.00
2019-04-14T16:02:36.592Z,16.60
2019-04-14T16:05:29.934Z,18.47
2019-04-14T16:08:03.452Z,17.73
2019-04-14T16:10:56.218Z,16.23
2019-04-14T16:13:31.881Z,18.63
2019-04-14T16:16:31.116Z,16.43
2019-04-14T16:19:03.494Z,17.17
2019-04-14T16:21:30.970Z,22.00
2019-04-14T16:23:58.938Z,19.07
2019-04-14T16:26:45.510Z,18.60
2019-04-14T16:29:25.703Z,17.50
2019-04-14T16:32:18.303Z,17.63
2019-04-14T16:34:49.756Z,17.37
2019-04-14T16:37:17.394Z,17.43
2019-04-14T16:39:44.968Z,15.50
2019-04-14T16:42:12.886Z,18.10
2019-04-14T16:44:40.451Z,17.70
2019-04-14T16:47:07.954Z,17.27
2019-04-14T16:49:35.545Z,17.00
2019-04-14T16:52:22.584Z,16.30
2019-04-14T16:54:55.381Z,16.23
2019-04-14T16:57:41.070Z,15.77
2019-04-14T17:00:09.841Z,16.13
2019-04-14T17:02:39.021Z,16.57
2019-04-14T17:05:06.617Z,15.87
2019-04-14T17:07:34.004Z,14.60
2019-04-14T17:10:01.557Z,14.67
2019-04-14T17:12:29.054Z,15.37
2019-04-14T17:15:02.878Z,19.47
2019-04-14T17:17:57.113Z,17.03
2019-04-14T17:20:59.085Z,16.40
2019-04-14T17:23:46.079Z,17.63
2019-04-14T17:26:21.659Z,16.77
2019-04-14T17:29:12.210Z,17.00
2019-04-14T17:31:59.069Z,17.73
2019-04-14T17:34:38.223Z,17.20
2019-04-14T17:37:25.244Z,20.17
2019-04-14T17:40:00.853Z,18.00
2019-04-14T17:42:36.613Z,16.27
2019-04-14T17:45:19.090Z,18.47
2019-04-14T17:47:53.211Z,16.93
2019-04-14T17:50:41.245Z,19.27
2019-04-14T17:53:38.223Z,18.43
2019-04-14T17:56:37.371Z,17.37
2019-04-14T17:59:24.274Z,16.73
2019-04-14T18:02:14.487Z,18.10
2019-04-14T18:05:01.397Z,16.73
2019-04-14T18:07:34.070Z,16.50
2019-04-14T18:10:36.144Z,18.53
2019-04-14T18:13:25.883Z,18.40
2019-04-14T18:16:11.415Z,19.57
2019-04-14T18:18:58.406Z,17.50
2019-04-14T18:21:25.914Z,17.13
2019-04-14T18:23:53.297Z,17.23
2019-04-14T18:26:20.743Z,18.23
2019-04-14T18:29:16.779Z,18.03
2019-04-14T18:31:52.521Z,16.33
2019-04-14T18:34:42.114Z,17.73
2019-04-14T18:37:21.746Z,17.47
2019-04-14T18:40:14.331Z,16.63
2019-04-14T18:42:59.620Z,17.87
2019-04-14T18:45:33.923Z,17.37
2019-04-14T18:48:11.555Z,17.57
2019-04-14T18:51:04.305Z,18.33
2019-04-14T18:53:57.578Z,18.43
2019-04-14T18:56:38.375Z,17.43
2019-04-14T18:59:40.613Z,16.80
2019-04-14T19:02:09.523Z,18.57
2019-04-14T19:04:36.979Z,17.20
2019-04-14T19:07:04.526Z,16.80
2019-04-14T19:09:31.840Z,17.43
2019-04-14T19:12:24.792Z,15.97
2019-04-14T19:14:58.336Z,16.40
2019-04-14T19:17:34.531Z,16.33
2019-04-14T19:20:02.662Z,15.00
2019-04-14T19:22:30.148Z,15.27
2019-04-14T19:25:07.283Z,15.07
2019-04-14T19:27:26.872Z,16.40
2019-04-14T19:29:54.333Z,14.73
2019-04-14T19:32:21.764Z,13.63
2019-04-14T19:34:49.238Z,14.37
2019-04-14T19:37:16.714Z,13.37
2019-04-14T19:39:44.361Z,14.27
2019-04-14T19:42:11.798Z,13.63
2019-04-14T19:44:39.268Z,15.93
2019-04-14T19:47:06.758Z,13.40
2019-04-14T19:49:34.264Z,15.27
2019-04-14T19:52:01.780Z,16.10
2019-04-14T19:54:29.277Z,14.27
2019-04-14T19:56:56.996Z,12.57
2019-04-14T19:59:24.447Z,13.47
2019-04-14T20:01:51.854Z,14.47
2019-04-14T20:04:19.290Z,14.13
2019-04-14T20:06:46.742Z,14.23
2019-04-14T20:09:14.248Z,14.77
2019-04-14T20:11:42.536Z,12.60
2019-04-14T20:14:10.030Z,13.63
2019-04-14T20:17:05.755Z,14.40
2019-04-14T20:20:05.769Z,14.07
2019-04-14T20:22:52.694Z,14.20
2019-04-14T20:25:39.699Z,14.07
2019-04-14T20:28:23.487Z,15.43
2019-04-14T20:30:56.103Z,14.57
2019-04-14T20:33:23.771Z,14.17
2019-04-14T20:35:51.285Z,13.63
2019-04-14T20:38:18.719Z,11.70
2019-04-14T20:40:47.706Z,13.73
2019-04-14T20:43:15.648Z,13.90
2019-04-14T20:45:43.033Z,16.33
2019-04-14T20:48:10.577Z,17.10
2019-04-14T20:50:38.556Z,14.10
2019-04-14T20:53:06.929Z,14.17
2019-04-14T20:55:46.257Z,14.90
2019-04-14T20:58:05.671Z,15.50
2019-04-14T21:00:33.123Z,14.27
2019-04-14T21:03:18.851Z,13.43
2019-04-14T21:06:14.776Z,12.53
2019-04-14T21:09:16.866Z,11.97
2019-04-14T21:12:15.459Z,12.00
2019-04-14T21:15:02.238Z,13.43
2019-04-14T21:17:34.604Z,12.67
2019-04-14T21:20:13.419Z,13.83
2019-04-14T21:22:49.085Z,13.70
2019-04-14T21:25:26.035Z,12.60
2019-04-14T21:28:11.735Z,13.20
2019-04-14T21:31:01.815Z,12.10
2019-04-14T21:34:05.931Z,12.13
2019-04-14T21:36:56.069Z,10.60
2019-04-14T21:39:46.907Z,10.63
2019-04-14T21:42:14.963Z,11.37
2019-04-14T21:44:43.329Z,11.57
2019-04-14T21:47:10.822Z,10.40
2019-04-14T21:49:38.281Z,9.67
2019-04-14T21:52:28.276Z,11.03
2019-04-14T21:54:55.758Z,10.27
2019-04-14T21:57:48.481Z,10.17
2019-04-14T22:00:43.283Z,8.70
2019-04-14T22:03:39.275Z,8.67
2019-04-14T22:06:28.959Z,8.23
2019-04-14T22:08:56.666Z,8.67
2019-04-14T22:11:25.913Z,9.47
2019-04-14T22:13:53.434Z,7.90
2019-04-14T22:16:20.805Z,9.83
2019-04-14T22:18:48.593Z,8.70
2019-04-14T22:21:18.287Z,9.30
2019-04-14T22:23:45.780Z,10.70
2019-04-14T22:26:20.270Z,9.77
2019-04-14T22:28:42.453Z,9.03
2019-04-14T22:31:09.912Z,10.27
2019-04-14T22:33:37.523Z,9.90
2019-04-14T22:36:04.964Z,10.87
2019-04-14T22:38:32.675Z,9.43
2019-04-14T22:41:00.148Z,10.50
2019-04-14T22:43:27.469Z,10.37
2019-04-14T22:45:54.926Z,10.03
2019-04-14T22:48:22.373Z,9.50
2019-04-14T22:50:49.828Z,9.10
2019-04-14T22:53:17.331Z,9.67
2019-04-14T22:55:44.749Z,9.20
2019-04-14T22:58:12.108Z,8.57
2019-04-14T23:00:49.841Z,8.83
2019-04-14T23:03:55.112Z,8.60
2019-04-14T23:06:50.864Z,8.70
2019-04-14T23:09:41.814Z,8.63
2019-04-14T23:12:29.377Z,8.47
2019-04-14T23:15:02.822Z,8.80
2019-04-14T23:17:36.539Z,8.33
2019-04-14T23:20:23.518Z,8.13
2019-04-14T23:23:10.428Z,8.97
2019-04-14T23:25:38.227Z,8.97
2019-04-14T23:28:05.670Z,8.37
2019-04-14T23:30:33.366Z,8.50
2019-04-14T23:33:00.828Z,8.70
2019-04-14T23:35:28.346Z,8.80
2019-04-14T23:37:55.692Z,8.13
2019-04-14T23:40:23.026Z,9.43
2019-04-14T23:42:50.382Z,8.43
2019-04-14T23:45:17.970Z,8.80
2019-04-14T23:47:45.329Z,8.47
2019-04-14T23:50:12.858Z,7.97
2019-04-14T23:52:40.200Z,7.43
2019-04-14T23:55:07.664Z,8.13
2019-04-14T23:57:35.244Z,8.57
